Time;durP1;ratioP1;P1;durP2;ratioP2;P2;SDS_P1;SDS_P2;PMS_P1;PMS_P2;Temp;Humidity;BMP_temperature;BMP_pressure;BME280_temperature;BME280_humidity;BME280_pressure;Samples;Min_cycle;Max_cycle;Signal;HPM_P1;HPM_P2
2022/10/27 00:02:18;;;;;;;1999.90;999.90;;;;;;;11.71;100.00;94815.13;5115722;28;20253;-70
2022/10/27 00:04:43;;;;;;;1999.90;999.90;;;;;;;11.69;100.00;94814.78;5115576;28;20206;-70
2022/10/27 00:07:09;;;;;;;1999.90;999.90;;;;;;;11.67;100.00;94814.44;5115372;28;20178;-70
2022/10/27 00:09:34;;;;;;;1999.90;999.90;;;;;;;11.68;100.00;94821.44;5116004;28;20174;-70
2022/10/27 00:12:00;;;;;;;1999.90;999.90;;;;;;;11.65;100.00;94827.78;5115475;28;20235;-70
2022/10/27 00:14:25;;;;;;;1999.90;999.90;;;;;;;11.63;100.00;94822.72;5116039;28;20249;-58
2022/10/27 00:16:55;;;;;;;1999.90;999.90;;;;;;;11.60;100.00;94836.44;5115464;28;20188;-66
2022/10/27 00:19:22;;;;;;;1999.90;999.90;;;;;;;11.54;100.00;94847.09;5115170;28;20189;-66
2022/10/27 00:21:49;;;;;;;1999.90;999.90;;;;;;;11.52;100.00;94856.91;5115947;28;20170;-67
2022/10/27 00:24:15;;;;;;;1999.90;999.90;;;;;;;11.46;100.00;94851.19;5115435;28;20225;-66
2022/10/27 00:26:40;;;;;;;1999.90;999.90;;;;;;;11.42;100.00;94842.28;5115261;28;20248;-67
2022/10/27 00:29:05;;;;;;;1999.90;999.90;;;;;;;11.40;100.00;94822.78;5115161;28;20172;-66
2022/10/27 00:31:31;;;;;;;1999.90;999.90;;;;;;;11.37;100.00;94801.00;5115328;28;20172;-60
2022/10/27 00:33:56;;;;;;;1999.90;999.90;;;;;;;11.29;100.00;94805.06;5114721;28;20176;-60
2022/10/27 00:36:23;;;;;;;1999.90;999.90;;;;;;;11.28;100.00;94781.66;5114786;28;20212;-60
2022/10/27 00:38:55;;;;;;;1999.90;999.90;;;;;;;11.26;100.00;94762.94;5114901;28;20208;-61
2022/10/27 00:41:27;;;;;;;1999.90;999.90;;;;;;;11.24;100.00;94753.63;5114712;28;20160;-61
2022/10/27 00:43:53;;;;;;;1999.90;999.90;;;;;;;11.23;100.00;94741.94;5114919;28;20228;-60
2022/10/27 00:46:46;;;;;;;1999.90;999.90;;;;;;;11.25;100.00;94736.03;5113706;28;20181;-60
2022/10/27 00:49:13;;;;;;;1999.90;999.90;;;;;;;11.23;100.00;94720.06;5112734;28;20190;-60
2022/10/27 00:51:47;;;;;;;1999.90;999.90;;;;;;;11.25;100.00;94700.50;5115147;28;20272;-70
2022/10/27 00:54:13;;;;;;;1999.90;999.90;;;;;;;11.24;100.00;94688.03;5115120;28;20164;-70
2022/10/27 00:56:41;;;;;;;1999.90;999.90;;;;;;;11.23;100.00;94686.50;5114297;28;20172;-70
2022/10/27 00:59:07;;;;;;;1999.90;999.90;;;;;;;11.21;100.00;94689.66;5115204;28;20196;-70
2022/10/27 01:01:33;;;;;;;1999.90;999.90;;;;;;;11.22;100.00;94691.19;5115147;28;20225;-71
2022/10/27 01:03:58;;;;;;;1999.90;999.90;;;;;;;11.19;100.00;94691.28;5114266;28;20209;-70
2022/10/27 01:06:25;;;;;;;1999.90;999.90;;;;;;;11.13;100.00;94701.16;5114554;28;20255;-71
2022/10/27 01:08:50;;;;;;;1999.90;999.90;;;;;;;11.13;100.00;94704.66;5115013;28;20174;-67
2022/10/27 01:11:16;;;;;;;1999.90;999.90;;;;;;;11.12;100.00;94707.81;5114329;28;20226;-58
2022/10/27 01:13:41;;;;;;;1999.90;999.90;;;;;;;11.10;100.00;94712.91;5114393;28;20173;-60
2022/10/27 01:16:28;;;;;;;1999.90;999.90;;;;;;;11.07;100.00;94716.53;5114159;28;20166;-60
2022/10/27 01:19:12;;;;;;;1999.90;999.90;;;;;;;11.08;100.00;94707.91;5114231;28;20202;-59
2022/10/27 01:21:56;;;;;;;1999.90;999.90;;;;;;;11.06;100.00;94709.50;5115033;28;20180;-59
2022/10/27 01:24:55;;;;;;;1999.90;999.90;;;;;;;11.05;100.00;94708.75;5113864;28;20233;-59
2022/10/27 01:27:30;;;;;;;1999.90;999.90;;;;;;;11.01;100.00;94712.75;5114852;28;20175;-60
2022/10/27 01:29:56;;;;;;;1999.90;999.90;;;;;;;10.97;100.00;94717.50;5114002;28;20175;-62
2022/10/27 01:32:37;;;;;;;1999.90;999.90;;;;;;;10.94;100.00;94719.13;5114034;28;20180;-61
2022/10/27 01:35:43;;;;;;;1999.90;999.90;;;;;;;10.92;100.00;94716.03;5114369;28;20197;-61
2022/10/27 01:38:26;;;;;;;1999.90;999.90;;;;;;;10.93;100.00;94711.34;5111320;28;20186;-61
2022/10/27 01:40:55;;;;;;;1999.90;999.90;;;;;;;10.93;100.00;94711.34;5113819;28;20198;-62
2022/10/27 01:43:25;;;;;;;1999.90;999.90;;;;;;;10.91;100.00;94705.53;5114253;28;20203;-61
2022/10/27 01:45:51;;;;;;;1999.90;999.90;;;;;;;10.88;100.00;94709.09;5113591;28;20205;-60
2022/10/27 01:48:18;;;;;;;1999.90;999.90;;;;;;;10.83;100.00;94710.38;5114749;28;20177;-66
2022/10/27 01:50:43;;;;;;;1999.90;999.90;;;;;;;10.79;100.00;94712.41;5114532;28;20199;-67
2022/10/27 01:53:12;;;;;;;1999.90;999.90;;;;;;;10.76;100.00;94707.00;5114014;28;20199;-66
2022/10/27 01:55:59;;;;;;;1999.90;999.90;;;;;;;10.73;100.00;94692.25;5113410;28;20200;-66
2022/10/27 01:58:40;;;;;;;1999.90;999.90;;;;;;;10.75;100.00;94675.44;5118689;28;20233;-66
2022/10/27 02:01:33;;;;;;;1999.90;999.90;;;;;;;10.75;100.00;94672.72;5118213;28;20272;-66
2022/10/27 02:04:05;;;;;;;1999.90;999.90;;;;;;;10.77;100.00;94670.31;5118591;28;20212;-58
2022/10/27 02:06:49;;;;;;;1999.90;999.90;;;;;;;10.74;100.00;94671.16;5117592;28;20262;-61
2022/10/27 02:09:56;;;;;;;1999.90;999.90;;;;;;;10.71;100.00;94672.75;5117805;28;20209;-61
2022/10/27 02:12:29;;;;;;;1999.90;999.90;;;;;;;10.70;100.00;94676.69;5088293;28;20184;-61
2022/10/27 02:14:59;;;;;;;1999.90;999.90;;;;;;;10.70;100.00;94675.94;5117552;28;20201;-61
2022/10/27 02:17:30;;;;;;;1999.90;999.90;;;;;;;10.67;100.00;94676.78;5118226;28;20176;-61
2022/10/27 02:19:58;;;;;;;1999.90;999.90;;;;;;;10.67;100.00;94676.78;5118256;28;20305;-61
2022/10/27 02:22:26;;;;;;;1999.90;999.90;;;;;;;10.64;100.00;94677.63;5118414;28;20176;-68
2022/10/27 02:24:52;;;;;;;1999.90;999.90;;;;;;;10.61;100.00;94678.44;5118131;28;20304;-60
2022/10/27 02:27:29;;;;;;;1999.90;999.90;;;;;;;10.58;100.00;94684.75;5117552;28;20175;-59
2022/10/27 02:29:57;;;;;;;1999.90;999.90;;;;;;;10.52;100.00;94680.97;5117844;28;20168;-59
2022/10/27 02:32:23;;;;;;;1999.90;999.90;;;;;;;10.51;100.00;94684.88;5117344;28;20172;-59
2022/10/27 02:34:50;;;;;;;1999.90;999.90;;;;;;;10.45;100.00;94681.13;5117455;28;20167;-59
2022/10/27 02:37:32;;;;;;;1999.90;999.90;;;;;;;10.43;100.00;94672.56;5117457;28;20186;-59
2022/10/27 02:39:57;;;;;;;1999.90;999.90;;;;;;;10.44;100.00;94663.19;5117688;28;20213;-59
2022/10/27 02:42:23;;;;;;;1999.90;999.90;;;;;;;10.39;100.00;94783.75;5117214;28;20182;-61
2022/10/27 02:44:48;;;;;;;1999.90;999.90;;;;;;;10.39;100.00;94775.56;5116927;28;20214;-61
2022/10/27 02:47:13;;;;;;;1999.90;999.90;;;;;;;10.37;100.00;94767.06;5117321;28;20191;-62
2022/10/27 02:49:39;;;;;;;1999.90;999.90;;;;;;;10.36;100.00;94773.69;5117553;28;20260;-61
2022/10/27 02:52:04;;;;;;;1999.90;999.90;;;;;;;10.35;100.00;94769.41;5117661;28;20168;-61
2022/10/27 02:54:30;;;;;;;1999.90;999.90;;;;;;;10.37;100.00;94772.50;5117320;28;20199;-61
2022/10/27 02:56:56;;;;;;;1999.90;999.90;;;;;;;10.33;100.00;94771.78;5117029;28;20199;-61
2022/10/27 02:59:21;;;;;;;1999.90;999.90;;;;;;;10.28;100.00;94775.00;5116634;28;20194;-61
2022/10/27 03:01:47;;;;;;;1999.90;999.90;;;;;;;10.23;100.00;94789.13;5116839;28;20171;-67
2022/10/27 03:04:12;;;;;;;1999.90;999.90;;;;;;;10.23;100.00;94783.66;5116992;28;20223;-67
2022/10/27 03:06:38;;;;;;;1999.90;999.90;;;;;;;10.26;100.00;94777.38;5116750;28;20172;-67
2022/10/27 03:09:03;;;;;;;1999.90;999.90;;;;;;;10.26;100.00;94769.94;5116648;28;20299;-67
2022/10/27 03:11:28;;;;;;;1999.90;999.90;;;;;;;10.24;100.00;94769.59;5117083;28;20196;-67
2022/10/27 03:13:54;;;;;;;1999.90;999.90;;;;;;;10.24;100.00;94768.81;5116646;28;20174;-67
2022/10/27 03:16:19;;;;;;;1999.90;999.90;;;;;;;10.23;100.00;94765.31;5116391;28;20169;-61
2022/10/27 03:18:44;;;;;;;1999.90;999.90;;;;;;;10.22;100.00;94779.38;5116822;28;20177;-66
2022/10/27 03:21:10;;;;;;;1999.90;999.90;;;;;;;10.21;100.00;94766.91;5117057;28;20168;-67
2022/10/27 03:23:35;;;;;;;1999.90;999.90;;;;;;;10.18;100.00;94781.38;5116385;28;20292;-67
2022/10/27 03:26:00;;;;;;;1999.90;999.90;;;;;;;10.13;100.00;94775.22;5116173;28;20204;-67
2022/10/27 03:28:29;;;;;;;1999.90;999.90;;;;;;;10.09;100.00;94782.69;5116978;28;20195;-67
2022/10/27 03:30:54;;;;;;;1999.90;999.90;;;;;;;10.08;100.00;94789.34;5116836;28;20210;-68
2022/10/27 03:33:19;;;;;;;1999.90;999.90;;;;;;;10.06;100.00;94794.44;5116346;28;20199;-67
2022/10/27 03:35:45;;;;;;;1999.90;999.90;;;;;;;10.06;100.00;94797.16;5116778;28;20237;-59
2022/10/27 03:38:11;;;;;;;1999.90;999.90;;;;;;;10.05;100.00;94794.81;5116147;28;20171;-59
2022/10/27 03:40:37;;;;;;;1999.90;999.90;;;;;;;10.04;100.00;94788.59;5116206;28;20228;-59
2022/10/27 03:43:02;;;;;;;1999.90;999.90;;;;;;;10.00;100.00;94801.53;5115708;28;20168;-59
2022/10/27 03:45:28;;;;;;;1999.90;999.90;;;;;;;9.95;100.00;94801.97;5115985;28;20187;-59
2022/10/27 03:48:11;;;;;;;1999.90;999.90;;;;;;;9.94;100.00;94811.34;5115836;28;20205;-60
2022/10/27 03:50:37;;;;;;;1999.90;999.90;;;;;;;9.84;100.00;94820.47;5115643;28;20244;-59
2022/10/27 03:53:03;;;;;;;1999.90;999.90;;;;;;;9.83;100.00;94831.78;5115706;28;20178;-65
2022/10/27 03:55:30;;;;;;;1999.90;999.90;;;;;;;9.81;100.00;94826.72;5116002;28;20177;-58
2022/10/27 03:57:55;;;;;;;1999.90;999.90;;;;;;;9.81;100.00;94831.44;5115548;28;20197;-61
2022/10/27 04:00:21;;;;;;;1999.90;999.90;;;;;;;9.79;100.00;94820.94;5115323;28;20173;-61
2022/10/27 04:02:47;;;;;;;1999.90;999.90;;;;;;;9.81;100.00;94821.28;5115715;28;20217;-61
2022/10/27 04:05:13;;;;;;;1999.90;999.90;;;;;;;9.78;100.00;94808.50;5115640;28;20207;-60
2022/10/27 04:07:38;;;;;;;1999.90;999.90;;;;;;;9.78;100.00;94813.94;5116132;28;20178;-62
2022/10/27 04:10:05;;;;;;;1999.90;999.90;;;;;;;9.80;100.00;94808.84;5115621;28;20192;-61
2022/10/27 04:12:30;;;;;;;1999.90;999.90;;;;;;;9.77;100.00;94806.94;5115583;28;20228;-60
2022/10/27 04:14:55;;;;;;;1999.90;999.90;;;;;;;9.74;100.00;94821.41;5115170;28;20168;-63
2022/10/27 04:17:21;;;;;;;1999.90;999.90;;;;;;;9.70;100.00;94820.66;5115738;28;20172;-63
2022/10/27 04:19:46;;;;;;;1999.90;999.90;;;;;;;9.67;100.00;94829.69;5115208;28;20177;-63
2022/10/27 04:22:12;;;;;;;1999.90;999.90;;;;;;;9.64;100.00;94830.50;5115221;28;20176;-63
2022/10/27 04:24:40;;;;;;;1999.90;999.90;;;;;;;9.58;100.00;94843.03;5115257;28;20227;-62
2022/10/27 04:27:06;;;;;;;1999.90;999.90;;;;;;;9.58;100.00;94853.19;5115399;28;20212;-63
2022/10/27 04:29:31;;;;;;;1999.90;999.90;;;;;;;9.55;100.00;94851.28;5115161;28;20265;-65
2022/10/27 04:31:57;;;;;;;1999.90;999.90;;;;;;;9.53;100.00;94862.59;5115085;28;20182;-59
2022/10/27 04:34:22;;;;;;;1999.90;999.90;;;;;;;9.49;100.00;94863.81;5114955;28;20172;-61
2022/10/27 04:36:47;;;;;;;1999.90;999.90;;;;;;;9.48;100.00;94860.28;5114759;28;20172;-63
2022/10/27 04:39:14;;;;;;;1999.90;999.90;;;;;;;9.50;100.00;94860.66;5115020;28;20171;-62
2022/10/27 04:41:40;;;;;;;1999.90;999.90;;;;;;;9.51;100.00;94859.47;5114747;28;20188;-62
2022/10/27 04:44:06;;;;;;;1999.90;999.90;;;;;;;9.49;100.00;94863.81;5114562;28;20209;-62
2022/10/27 04:46:31;;;;;;;1999.90;999.90;;;;;;;9.45;100.00;94863.88;5115545;28;20172;-62
2022/10/27 04:48:56;;;;;;;1999.90;999.90;;;;;;;9.40;100.00;94874.44;5114771;28;20203;-59
2022/10/27 04:51:22;;;;;;;1999.90;999.90;;;;;;;9.35;100.00;94867.47;5114940;28;20263;-59
2022/10/27 04:53:47;;;;;;;1999.90;999.90;;;;;;;9.30;100.00;94870.66;5114690;28;20202;-59
2022/10/27 04:56:13;;;;;;;1999.90;999.90;;;;;;;9.30;100.00;94876.13;5114462;28;20173;-58
2022/10/27 04:58:38;;;;;;;1999.90;999.90;;;;;;;9.29;100.00;94880.00;5114649;28;20263;-58
2022/10/27 05:01:08;;;;;;;1999.90;999.90;;;;;;;9.30;100.00;94881.56;5114250;28;20551;-58
2022/10/27 05:03:34;;;;;;;1999.90;999.90;;;;;;;9.33;100.00;94878.00;5114726;28;20192;-58
2022/10/27 05:05:59;;;;;;;1999.90;999.90;;;;;;;9.35;100.00;94872.94;5114155;28;20204;-67
2022/10/27 05:08:25;;;;;;;1999.90;999.90;;;;;;;9.36;100.00;94869.03;5114366;28;20175;-60
2022/10/27 05:10:50;;;;;;;1999.90;999.90;;;;;;;9.37;100.00;94864.34;5114590;28;20176;-59
2022/10/27 05:13:15;;;;;;;1999.90;999.90;;;;;;;9.36;100.00;94863.56;5114359;28;20197;-59
2022/10/27 05:15:41;;;;;;;1999.90;999.90;;;;;;;9.39;100.00;94861.97;5114253;28;20180;-58
2022/10/27 05:18:06;;;;;;;1999.90;999.90;;;;;;;9.38;100.00;94849.53;5114202;28;20186;-58
2022/10/27 05:20:31;;;;;;;1999.90;999.90;;;;;;;9.34;100.00;94855.03;5114704;28;20262;-58
2022/10/27 05:22:57;;;;;;;1999.90;999.90;;;;;;;9.32;100.00;94857.38;5113648;28;20215;-59
2022/10/27 05:25:22;;;;;;;1999.90;999.90;;;;;;;9.28;100.00;94853.94;5113560;28;20278;-70
2022/10/27 05:27:47;;;;;;;1999.90;999.90;;;;;;;9.25;100.00;94860.19;5114824;28;20266;-67
2022/10/27 05:30:13;;;;;;;1999.90;999.90;;;;;;;9.19;100.00;94869.22;5113888;28;20183;-67
2022/10/27 05:32:39;;;;;;;1999.90;999.90;;;;;;;9.12;100.00;94859.19;5114483;28;20168;-67
2022/10/27 05:35:05;;;;;;;1999.90;999.90;;;;;;;9.08;100.00;94863.91;5114438;28;20176;-67
2022/10/27 05:37:30;;;;;;;1999.90;999.90;;;;;;;9.06;100.00;94854.59;5114735;28;20341;-67
2022/10/27 05:39:56;;;;;;;1999.90;999.90;;;;;;;9.06;100.00;94849.13;5113764;28;20198;-68
2022/10/27 05:42:21;;;;;;;1999.90;999.90;;;;;;;9.06;100.00;94852.66;5114192;28;20172;-69
2022/10/27 05:44:46;;;;;;;1999.90;999.90;;;;;;;9.08;100.00;94844.84;5113468;28;20191;-67
2022/10/27 05:47:12;;;;;;;1999.90;999.90;;;;;;;9.13;100.00;94844.41;5114664;28;20179;-60
2022/10/27 05:49:37;;;;;;;1999.90;999.90;;;;;;;9.15;100.00;94847.47;5113780;28;20164;-62
2022/10/27 05:52:03;;;;;;;1999.90;999.90;;;;;;;9.17;100.00;94839.69;5113861;28;20179;-60
2022/10/27 05:54:28;;;;;;;1999.90;999.90;;;;;;;9.16;100.00;94849.03;5114135;28;20168;-60
2022/10/27 05:56:53;;;;;;;1999.90;999.90;;;;;;;9.20;100.00;94851.69;5114012;28;20164;-62
2022/10/27 05:59:19;;;;;;;1999.90;999.90;;;;;;;9.21;100.00;94845.84;5113823;28;20224;-61
2022/10/27 06:01:44;;;;;;;1999.90;999.90;;;;;;;9.32;100.00;94838.31;5114550;28;20175;-66
2022/10/27 06:04:10;;;;;;;1999.90;999.90;;;;;;;9.60;100.00;94824.34;5113854;28;20199;-60
2022/10/27 06:06:35;;;;;;;1999.90;999.90;;;;;;;9.88;100.00;94823.91;5114793;28;20172;-67
2022/10/27 06:09:00;;;;;;;1999.90;999.90;;;;;;;10.23;100.00;94832.78;5114326;28;20183;-67
2022/10/27 06:11:26;;;;;;;1999.90;999.90;;;;;;;10.42;100.00;94851.97;5113786;28;20195;-67
2022/10/27 06:13:52;;;;;;;1999.90;999.90;;;;;;;10.96;100.00;94874.41;5114329;28;20226;-66
2022/10/27 06:16:22;;;;;;;1999.90;999.90;;;;;;;11.30;100.00;94929.59;5113743;28;20208;-67
2022/10/27 06:18:47;;;;;;;1999.90;999.90;;;;;;;12.06;100.00;94978.53;5113618;28;20205;-69
2022/10/27 06:21:13;;;;;;;1999.90;999.90;;;;;;;12.59;100.00;95211.00;5114085;28;20205;-64
2022/10/27 06:23:40;;;;;;;1999.90;999.90;;;;;;;12.98;100.00;95422.91;5113296;28;20274;-59
2022/10/27 06:26:05;;;;;;;1999.90;999.90;;;;;;;13.48;100.00;95576.44;5114230;28;20211;-59
2022/10/27 06:28:31;;;;;;;1999.90;999.90;;;;;;;13.72;100.00;95792.06;5113810;28;20175;-58
2022/10/27 06:30:56;;;;;;;1999.90;999.90;;;;;;;14.15;100.00;95915.81;5113201;28;20176;-59
2022/10/27 06:33:22;;;;;;;1999.90;999.90;;;;;;;14.42;100.00;96024.59;5113493;28;20176;-59
2022/10/27 06:35:48;;;;;;;1999.90;999.90;;;;;;;14.80;100.00;96100.31;5113201;28;20180;-60
2022/10/27 06:38:15;;;;;;;1999.90;999.90;;;;;;;15.09;100.00;96156.50;5113438;28;20176;-61
2022/10/27 06:40:44;;;;;;;1999.90;999.90;;;;;;;15.34;100.00;96178.94;5113646;28;20178;-61
2022/10/27 06:43:12;;;;;;;1999.90;999.90;;;;;;;15.76;100.00;96199.59;5113707;28;20204;-61
2022/10/27 06:45:38;;;;;;;1999.90;999.90;;;;;;;16.11;100.00;96216.34;5117061;28;20306;-60
2022/10/27 06:48:07;;;;;;;1999.90;999.90;;;;;;;15.95;100.00;96232.75;5116733;28;20275;-60
2022/10/27 06:50:33;;;;;;;1999.90;999.90;;;;;;;16.97;100.00;96230.25;5117209;28;20171;-60
2022/10/27 06:53:00;;;;;;;1999.90;999.90;;;;;;;17.46;100.00;96243.06;5117156;28;20176;-60
2022/10/27 06:55:26;;;;;;;1999.90;999.90;;;;;;;18.05;100.00;96252.78;5117262;28;20180;-60
2022/10/27 06:57:51;;;;;;;1999.90;999.90;;;;;;;18.98;100.00;96263.94;5116623;28;20179;-62
2022/10/27 07:00:17;;;;;;;1999.90;999.90;;;;;;;19.28;100.00;96269.84;5117907;28;20251;-59
2022/10/27 07:02:42;;;;;;;1999.90;999.90;;;;;;;18.89;100.00;96272.06;5117301;28;20187;-59
2022/10/27 07:05:08;;;;;;;1999.90;999.90;;;;;;;18.90;100.00;96276.38;5116495;28;20215;-59
2022/10/27 07:07:35;;;;;;;1999.90;999.90;;;;;;;18.69;100.00;96279.72;5116722;28;20280;-59
2022/10/27 07:10:00;;;;;;;1999.90;999.90;;;;;;;19.41;100.00;96278.16;5116648;28;20252;-59
2022/10/27 07:12:26;;;;;;;1999.90;999.90;;;;;;;19.69;100.00;96282.91;5116925;28;20172;-59
2022/10/27 07:14:51;;;;;;;1999.90;999.90;;;;;;;19.68;100.00;96289.69;5116623;28;20171;-66
2022/10/27 07:17:16;;;;;;;1999.90;999.90;;;;;;;19.51;100.00;96279.88;5116939;28;20176;-61
2022/10/27 07:19:42;;;;;;;1999.90;999.90;;;;;;;19.79;100.00;96292.91;5116212;28;20225;-79
2022/10/27 07:22:07;;;;;;;1999.90;999.90;;;;;;;20.10;100.00;96290.41;5116511;28;20186;-75
2022/10/27 07:24:32;;;;;;;1999.90;999.90;;;;;;;20.15;100.00;96284.34;5115798;28;20322;-76
2022/10/27 07:26:58;;;;;;;1999.90;999.90;;;;;;;20.88;100.00;96286.69;5117354;28;20204;-77
2022/10/27 07:29:23;;;;;;;1999.90;999.90;;;;;;;20.91;100.00;96291.38;5116088;28;20172;-76
2022/10/27 07:31:49;;;;;;;1999.90;999.90;;;;;;;20.46;100.00;96288.88;5115978;28;20229;-80
2022/10/27 07:34:14;;;;;;;1999.90;999.90;;;;;;;20.68;100.00;96289.72;5116720;28;20200;-62
2022/10/27 07:36:39;;;;;;;1999.90;999.90;;;;;;;20.69;100.00;96285.72;5115907;28;20236;-62
2022/10/27 07:39:05;;;;;;;1999.90;999.90;;;;;;;20.96;100.00;96288.03;5116558;28;20178;-62
2022/10/27 07:41:31;;;;;;;1999.90;999.90;;;;;;;20.74;100.00;96293.50;5116091;28;20248;-62
2022/10/27 07:43:56;;;;;;;1999.90;999.90;;;;;;;21.07;100.00;96289.22;5116084;28;20180;-62
2022/10/27 07:46:22;;;;;;;1999.90;999.90;;;;;;;20.92;100.00;96299.28;5116165;28;20187;-62
2022/10/27 07:48:47;;;;;;;1999.90;999.90;;;;;;;21.20;100.00;96298.28;5115687;28;20187;-62
2022/10/27 07:51:12;;;;;;;1999.90;999.90;;;;;;;21.52;100.00;96292.38;5115786;28;20176;-62
2022/10/27 07:53:38;;;;;;;1999.90;999.90;;;;;;;21.39;100.00;96294.47;5115443;28;20176;-74
2022/10/27 07:56:03;;;;;;;1999.90;999.90;;;;;;;21.63;100.00;96298.34;5115637;28;20176;-61
2022/10/27 07:58:29;;;;;;;1999.90;999.90;;;;;;;21.88;100.00;96303.78;5115504;28;20168;-60
2022/10/27 08:00:56;;;;;;;1999.90;999.90;;;;;;;21.89;100.00;96299.75;5116262;28;20270;-61
2022/10/27 08:03:25;;;;;;;1999.90;999.90;;;;;;;22.14;100.00;96307.16;5116433;28;20255;-61
2022/10/27 08:05:50;;;;;;;1999.90;999.90;;;;;;;22.73;100.00;96297.69;5115302;28;20199;-61
2022/10/27 08:08:16;;;;;;;1999.90;999.90;;;;;;;22.73;100.00;96297.69;5115499;28;20263;-61
2022/10/27 08:10:43;;;;;;;1999.90;999.90;;;;;;;23.05;100.00;96302.72;5116464;28;20168;-60
2022/10/27 08:13:09;;;;;;;1999.90;999.90;;;;;;;23.52;100.00;96297.53;5116030;28;20207;-62
2022/10/27 08:15:36;;;;;;;1999.90;999.90;;;;;;;23.19;100.00;96296.56;5115550;28;20197;-77
2022/10/27 08:18:02;;;;;;;1999.90;999.90;;;;;;;23.25;100.00;96297.50;5115403;28;20179;-77
2022/10/27 08:20:31;;;;;;;1999.90;999.90;;;;;;;23.11;100.00;96296.06;5115423;28;20176;-76
2022/10/27 08:23:04;;;;;;;1999.90;999.90;;;;;;;22.95;100.00;96292.78;5115142;28;20222;-77
2022/10/27 08:25:30;;;;;;;1999.90;999.90;;;;;;;23.22;100.00;96292.84;5115268;28;20202;-76
2022/10/27 08:27:57;;;;;;;1999.90;999.90;;;;;;;23.07;100.00;96297.44;5115114;28;20172;-76
2022/10/27 08:30:24;;;;;;;1999.90;999.90;;;;;;;22.75;100.00;96298.00;5115193;28;20176;-67
2022/10/27 08:32:57;;;;;;;1999.90;999.90;;;;;;;22.57;100.00;96284.03;5115058;28;20210;-63
2022/10/27 08:35:24;;;;;;;1999.90;999.90;;;;;;;22.85;100.00;96291.22;5115763;28;20167;-61
2022/10/27 08:37:49;;;;;;;1999.90;999.90;;;;;;;23.08;100.00;96288.63;5115643;28;20199;-60
2022/10/27 08:40:15;;;;;;;1999.90;999.90;;;;;;;23.83;100.00;96292.53;5115363;28;20176;-61
2022/10/27 08:42:51;;;;;;;1999.90;999.90;;;;;;;23.67;100.00;96301.22;5114978;28;20172;-61
2022/10/27 08:45:24;;;;;;;1999.90;999.90;;;;;;;23.97;100.00;96297.50;5114627;28;20196;-60
2022/10/27 08:47:53;;;;;;;1999.90;999.90;;;;;;;24.13;100.00;96294.34;5115468;28;20163;-66
2022/10/27 08:50:22;;;;;;;1999.90;999.90;;;;;;;24.27;100.00;96293.69;5114436;28;20183;-62
2022/10/27 08:52:52;;;;;;;1999.90;999.90;;;;;;;24.55;100.00;96292.34;5114410;28;20168;-62
2022/10/27 08:55:52;;;;;;;1999.90;999.90;;;;;;;24.21;100.00;96295.53;5115032;28;20243;-62
2022/10/27 08:58:26;;;;;;;1999.90;999.90;;;;;;;24.01;100.00;96295.31;5082108;28;20240;-62
2022/10/27 09:00:58;;;;;;;1999.90;999.90;;;;;;;23.97;100.00;96287.09;5114179;28;20167;-63
2022/10/27 09:03:46;;;;;;;1999.90;999.90;;;;;;;24.44;100.00;96280.91;5114272;28;20172;-62
2022/10/27 09:06:28;;;;;;;1999.90;999.90;;;;;;;24.36;100.00;96290.88;5113963;28;20203;-63
2022/10/27 09:09:20;;;;;;;1999.90;999.90;;;;;;;24.25;100.00;96285.78;5115335;28;20160;-76
2022/10/27 09:12:23;;;;;;;1999.90;999.90;;;;;;;24.60;100.00;96283.31;5115315;28;20251;-76
2022/10/27 09:15:24;;;;;;;1999.90;999.90;;;;;;;24.58;100.00;96291.41;5114545;28;20179;-76
2022/10/27 09:17:57;;;;;;;1999.90;999.90;;;;;;;24.79;100.00;96290.38;5103478;28;20180;-76
2022/10/27 09:20:38;;;;;;;1999.90;999.90;;;;;;;24.86;100.00;96287.22;5114740;28;20168;-76
2022/10/27 09:23:10;;;;;;;1999.90;999.90;;;;;;;24.80;100.00;96292.69;5115203;28;20212;-76
2022/10/27 09:25:38;;;;;;;1999.90;999.90;;;;;;;25.14;100.00;96280.97;5114652;28;20238;-62
2022/10/27 09:28:05;;;;;;;1999.90;999.90;;;;;;;25.18;98.88;96284.38;5114244;28;20192;-62
2022/10/27 09:30:36;;;;;;;1999.90;999.90;;;;;;;25.22;97.94;96282.19;5113946;28;20225;-62
2022/10/27 09:33:01;;;;;;;1999.90;999.90;;;;;;;25.66;97.73;96279.50;5114022;28;20269;-62
2022/10/27 09:35:30;;;;;;;1999.90;999.90;;;;;;;25.94;92.68;96275.19;5114611;28;20210;-62
2022/10/27 09:37:58;;;;;;;1999.90;999.90;;;;;;;25.61;94.14;96271.00;5114078;28;20178;-62
2022/10/27 09:40:25;;;;;;;1999.90;999.90;;;;;;;25.90;91.95;96277.44;5114497;28;20224;-62
2022/10/27 09:42:54;;;;;;;1999.90;999.90;;;;;;;26.12;88.60;96277.84;5113875;28;20172;-61
2022/10/27 09:45:25;;;;;;;1999.90;999.90;;;;;;;26.35;86.17;96262.94;5114291;28;20199;-65
2022/10/27 09:48:02;;;;;;;1999.90;999.90;;;;;;;26.45;84.01;96269.19;5114263;28;20160;-69
2022/10/27 09:50:35;;;;;;;1999.90;999.90;;;;;;;26.57;84.23;96263.28;5114433;28;20171;-69
2022/10/27 09:53:02;;;;;;;1999.90;999.90;;;;;;;26.77;80.51;96268.94;5114687;28;20161;-69
2022/10/27 09:55:48;;;;;;;1999.90;999.90;;;;;;;26.81;83.14;96266.72;5113964;28;20168;-69
2022/10/27 09:58:14;;;;;;;1999.90;999.90;;;;;;;26.52;83.40;96261.19;5115274;28;20244;-69
2022/10/27 10:00:41;;;;;;;1999.90;999.90;;;;;;;26.23;85.53;96269.63;5114594;28;20216;-61
2022/10/27 10:03:21;;;;;;;1999.90;999.90;;;;;;;26.51;86.21;96265.22;5113829;28;20172;-66
2022/10/27 10:05:58;;;;;;;1999.90;999.90;;;;;;;25.94;80.82;96264.00;5113593;28;20191;-62
2022/10/27 10:08:26;;;;;;;1999.90;999.90;;;;;;;26.26;80.19;96265.84;5113530;28;20166;-63
2022/10/27 10:10:56;;;;;;;1999.90;999.90;;;;;;;25.77;82.71;96267.72;5113812;28;20160;-62
2022/10/27 10:13:22;;;;;;;1999.90;999.90;;;;;;;25.64;82.82;96264.47;5113799;28;20168;-63
2022/10/27 10:16:04;;;;;;;1999.90;999.90;;;;;;;24.83;83.53;96269.38;5114020;28;20167;-62
2022/10/27 10:18:31;;;;;;;1999.90;999.90;;;;;;;25.19;85.06;96257.19;5116844;28;20164;-62
2022/10/27 10:21:01;;;;;;;1999.90;999.90;;;;;;;25.69;80.94;96258.97;5117660;28;20168;-69
2022/10/27 10:23:30;;;;;;;1999.90;999.90;;;;;;;25.97;82.66;96260.28;5117525;28;20266;-74
2022/10/27 10:25:58;;;;;;;1999.90;999.90;;;;;;;25.41;82.60;96262.50;5117801;28;20235;-76
2022/10/27 10:28:45;;;;;;;1999.90;999.90;;;;;;;26.49;75.17;96261.38;5117167;28;20178;-74
2022/10/27 10:31:20;;;;;;;1999.90;999.90;;;;;;;26.97;72.55;96263.38;5117329;28;20167;-74
2022/10/27 10:33:46;;;;;;;1999.90;999.90;;;;;;;26.71;73.26;96267.34;5117453;28;20175;-74
2022/10/27 10:36:35;;;;;;;1999.90;999.90;;;;;;;27.65;69.79;96256.06;5117331;28;20248;-75
2022/10/27 10:39:03;;;;;;;1999.90;999.90;;;;;;;27.69;66.78;96272.72;5117839;28;20259;-69
2022/10/27 10:41:29;;;;;;;1999.90;999.90;;;;;;;27.59;67.39;96263.69;5117283;28;20183;-62
2022/10/27 10:44:14;;;;;;;1999.90;999.90;;;;;;;26.65;72.46;96266.47;5118427;28;20167;-62
2022/10/27 10:46:56;;;;;;;1999.90;999.90;;;;;;;26.30;74.17;96272.03;5118061;28;20195;-62
2022/10/27 10:49:23;;;;;;;1999.90;999.90;;;;;;;25.09;84.81;96261.28;5117135;28;20171;-62
2022/10/27 10:51:52;;;;;;;1999.90;999.90;;;;;;;25.10;87.65;96258.00;5117102;28;20172;-62
2022/10/27 10:54:26;;;;;;;1999.90;999.90;;;;;;;24.76;90.51;96255.75;5117424;28;20195;-62
2022/10/27 10:56:56;;;;;;;1999.90;999.90;;;;;;;24.20;98.17;96252.13;5117791;28;20167;-61
2022/10/27 10:59:27;;;;;;;1999.90;999.90;;;;;;;23.80;95.45;96254.38;5116657;28;20225;-67